createdAt,value
2023-03-29T00:01:35.397Z,96758.97
2023-03-29T00:04:05.032Z,96761.22
2023-03-29T00:06:33.980Z,96779.22
2023-03-29T00:09:05.425Z,96782.66
2023-03-29T00:11:33.866Z,96788.94
2023-03-29T00:14:02.431Z,96818.59
2023-03-29T00:16:32.435Z,96825.03
2023-03-29T00:19:00.834Z,96827.03
2023-03-29T00:21:29.417Z,96831.56
2023-03-29T00:23:58.429Z,96834.91
2023-03-29T00:26:27.019Z,96819.91
2023-03-29T00:28:55.422Z,96839.88
2023-03-29T00:31:23.988Z,96844.41
2023-03-29T00:33:53.869Z,96864.75
2023-03-29T00:36:23.370Z,96850.09
2023-03-29T00:38:51.738Z,96844.03
2023-03-29T00:41:20.139Z,96834.47
2023-03-29T00:43:53.455Z,96863.28
2023-03-29T00:46:21.947Z,96903.00
2023-03-29T00:48:54.050Z,96910.22
2023-03-29T00:51:26.821Z,96915.88
2023-03-29T00:53:59.639Z,96916.22
2023-03-29T00:56:31.421Z,96926.31
2023-03-29T00:59:05.681Z,96932.47
2023-03-29T01:01:42.498Z,96923.69
2023-03-29T01:04:18.477Z,96938.22
2023-03-29T01:06:50.886Z,96935.38
2023-03-29T01:09:23.173Z,96928.03
2023-03-29T01:11:55.680Z,96930.09
2023-03-29T01:14:28.429Z,96932.25
2023-03-29T01:16:57.506Z,96925.75
2023-03-29T01:19:33.061Z,96918.41
2023-03-29T01:22:14.777Z,96920.31
2023-03-29T01:24:59.774Z,96917.25
2023-03-29T01:27:54.005Z,96904.41
2023-03-29T01:30:26.846Z,96903.03
2023-03-29T01:32:59.802Z,96908.72
2023-03-29T01:35:34.255Z,96899.81
2023-03-29T01:38:07.330Z,96891.00
2023-03-29T01:40:36.045Z,96882.06
2023-03-29T01:43:13.483Z,96880.41
2023-03-29T01:45:47.129Z,96874.34
2023-03-29T01:48:21.901Z,96871.13
2023-03-29T01:50:54.190Z,96870.25
2023-03-29T01:53:29.501Z,96858.03
2023-03-29T01:56:04.490Z,96858.84
2023-03-29T01:58:38.629Z,96863.63
2023-03-29T02:01:10.525Z,96863.13
2023-03-29T02:03:43.195Z,96851.59
2023-03-29T02:06:14.238Z,96830.88
2023-03-29T02:08:43.960Z,96826.34
2023-03-29T02:11:12.719Z,96817.41
2023-03-29T02:13:42.760Z,96808.47
2023-03-29T02:16:20.865Z,96808.09
2023-03-29T02:18:52.902Z,96793.91
2023-03-29T02:21:27.266Z,96785.34
2023-03-29T02:23:56.875Z,96764.66
2023-03-29T02:26:25.255Z,96769.28
2023-03-29T02:28:54.992Z,96761.66
2023-03-29T02:31:28.336Z,96751.19
2023-03-29T02:34:03.036Z,96738.94
2023-03-29T02:36:35.386Z,96755.81
2023-03-29T02:39:05.840Z,96746.53
2023-03-29T02:41:36.235Z,96732.72
2023-03-29T02:44:08.754Z,96728.56
2023-03-29T02:46:38.031Z,96712.88
2023-03-29T02:49:06.658Z,96718.94
2023-03-29T02:51:37.706Z,96702.28
2023-03-29T02:54:13.221Z,96702.91
2023-03-29T02:56:45.436Z,96689.81
2023-03-29T02:59:16.669Z,96670.41
2023-03-29T03:01:45.115Z,96680.75
2023-03-29T03:04:13.667Z,96669.44
2023-03-29T03:06:42.356Z,96666.97
2023-03-29T03:09:11.085Z,96675.84
2023-03-29T03:11:39.489Z,96664.69
2023-03-29T03:14:08.085Z,96670.88
2023-03-29T03:16:38.661Z,96658.63
2023-03-29T03:19:07.871Z,96673.38
2023-03-29T03:21:37.706Z,96664.69
2023-03-29T03:24:07.665Z,96670.88
2023-03-29T03:26:38.266Z,96670.03
2023-03-29T03:29:06.936Z,96671.81
2023-03-29T03:31:35.415Z,96675.16
2023-03-29T03:34:05.164Z,96671.59
2023-03-29T03:36:34.694Z,96674.94
2023-03-29T03:39:05.779Z,96667.91
2023-03-29T03:41:34.532Z,96668.50
2023-03-29T03:44:02.950Z,96668.28
2023-03-29T03:46:31.457Z,96650.66
2023-03-29T03:49:00.536Z,96655.53
2023-03-29T03:51:30.232Z,96664.19
2023-03-29T03:53:58.813Z,96665.63
2023-03-29T03:56:29.918Z,96648.00
2023-03-29T03:58:58.330Z,96653.03
2023-03-29T04:01:27.284Z,96640.63
2023-03-29T04:04:03.708Z,96643.25
2023-03-29T04:06:33.462Z,96643.97
2023-03-29T04:09:01.852Z,96638.38
2023-03-29T04:11:30.268Z,96639.81
2023-03-29T04:13:58.750Z,96648.25
2023-03-29T04:16:27.394Z,96635.88
2023-03-29T04:18:56.027Z,96650.59
2023-03-29T04:21:27.212Z,96623.59
2023-03-29T04:23:56.953Z,96637.41
2023-03-29T04:26:25.862Z,96631.06
2023-03-29T04:28:54.398Z,96602.97
2023-03-29T04:31:22.975Z,96618.44
2023-03-29T04:33:51.774Z,96620.81
2023-03-29T04:36:21.746Z,96613.81
2023-03-29T04:38:53.622Z,96605.81
2023-03-29T04:41:24.812Z,96598.66
2023-03-29T04:43:53.652Z,96595.78
2023-03-29T04:46:26.666Z,96592.06
2023-03-29T04:48:55.311Z,96599.81
2023-03-29T04:51:24.434Z,96594.59
2023-03-29T04:53:53.047Z,96595.56
2023-03-29T04:56:24.287Z,96610.19
2023-03-29T04:58:52.755Z,96603.16
2023-03-29T05:01:22.055Z,96616.13
2023-03-29T05:03:50.496Z,96604.56
2023-03-29T05:06:18.891Z,96601.00
2023-03-29T05:08:47.290Z,96601.81
2023-03-29T05:11:15.662Z,96593.84
2023-03-29T05:13:45.466Z,96598.84
2023-03-29T05:16:13.918Z,96600.25
2023-03-29T05:18:42.620Z,96596.28
2023-03-29T05:21:11.015Z,96597.59
2023-03-29T05:23:39.609Z,96604.09
2023-03-29T05:26:09.909Z,96611.72
2023-03-29T05:28:38.684Z,96610.75
2023-03-29T05:31:08.916Z,96636.84
2023-03-29T05:33:37.394Z,96616.84
2023-03-29T05:36:08.521Z,96598.22
2023-03-29T05:38:37.025Z,96604.03
2023-03-29T05:41:06.308Z,96603.91
2023-03-29T05:43:35.738Z,96611.06
2023-03-29T05:46:04.200Z,96601.56
2023-03-29T05:48:34.320Z,96610.38
2023-03-29T05:51:03.733Z,96608.69
2023-03-29T05:53:32.273Z,96604.31
2023-03-29T05:56:00.612Z,96607.88
2023-03-29T05:58:30.384Z,96626.34
2023-03-29T06:01:00.506Z,96622.19
2023-03-29T06:03:29.786Z,96630.88
2023-03-29T06:06:02.409Z,96611.81
2023-03-29T06:08:31.694Z,96619.81
2023-03-29T06:11:04.602Z,96611.94
2023-03-29T06:13:34.656Z,96626.03
2023-03-29T06:16:04.226Z,96625.31
2023-03-29T06:18:32.880Z,96611.50
2023-03-29T06:21:03.547Z,96617.97
2023-03-29T06:23:32.590Z,96619.03
2023-03-29T06:26:01.389Z,96623.34
2023-03-29T06:28:30.148Z,96618.22
2023-03-29T06:31:02.916Z,96620.94
2023-03-29T06:33:34.438Z,96620.94
2023-03-29T06:36:04.676Z,96613.94
2023-03-29T06:38:34.113Z,96614.06
2023-03-29T06:41:04.087Z,96625.38
2023-03-29T06:43:33.455Z,96613.78
2023-03-29T06:46:02.704Z,96611.06
2023-03-29T06:48:31.693Z,96620.59
2023-03-29T06:51:00.211Z,96613.31
2023-03-29T06:53:30.817Z,96630.31
2023-03-29T06:55:59.638Z,96609.78
2023-03-29T06:58:28.805Z,96620.63
2023-03-29T07:01:02.099Z,96622.84
2023-03-29T07:03:31.444Z,96630.09
2023-03-29T07:06:03.690Z,96628.63
2023-03-29T07:08:35.112Z,96621.06
2023-03-29T07:11:04.097Z,96634.50
2023-03-29T07:13:33.085Z,96653.19
2023-03-29T07:16:01.915Z,96654.19
2023-03-29T07:18:30.477Z,96670.16
2023-03-29T07:20:58.886Z,96651.13
2023-03-29T07:23:27.297Z,96653.66
2023-03-29T07:25:57.060Z,96664.78
2023-03-29T07:28:25.860Z,96666.50
2023-03-29T07:30:55.019Z,96657.16
2023-03-29T07:33:24.606Z,96672.25
2023-03-29T07:35:53.004Z,96662.47
2023-03-29T07:38:22.207Z,96677.41
2023-03-29T07:40:50.616Z,96684.34
2023-03-29T07:43:20.452Z,96672.03
2023-03-29T07:45:48.998Z,96678.44
2023-03-29T07:48:17.854Z,96687.72
2023-03-29T07:50:46.770Z,96669.19
2023-03-29T07:53:15.188Z,96670.81
2023-03-29T07:55:47.726Z,96680.66
2023-03-29T07:58:17.182Z,96663.50
2023-03-29T08:00:47.009Z,96670.03
2023-03-29T08:03:16.115Z,96670.47
2023-03-29T08:05:45.035Z,96664.91
2023-03-29T08:08:14.307Z,96674.47
2023-03-29T08:10:42.825Z,96670.31
2023-03-29T08:13:11.948Z,96675.16
2023-03-29T08:15:46.209Z,96692.28
2023-03-29T08:18:16.114Z,96674.56
2023-03-29T08:20:44.915Z,96677.72
2023-03-29T08:23:13.325Z,96688.50
2023-03-29T08:25:42.385Z,96686.44
2023-03-29T08:28:10.800Z,96684.25
2023-03-29T08:30:39.803Z,96685.66
2023-03-29T08:33:08.248Z,96685.22
2023-03-29T08:35:37.995Z,96682.91
2023-03-29T08:38:06.465Z,96696.19
2023-03-29T08:40:37.031Z,96691.63
2023-03-29T08:43:37.639Z,96687.34
2023-03-29T08:46:17.798Z,96687.50
2023-03-29T08:48:51.904Z,96689.00
2023-03-29T08:51:25.648Z,96681.56
2023-03-29T08:53:59.052Z,96673.38
2023-03-29T08:56:30.311Z,96685.00
2023-03-29T08:59:01.070Z,96674.94
2023-03-29T09:01:34.216Z,96677.81
2023-03-29T09:04:07.592Z,96685.84
2023-03-29T09:06:39.887Z,96677.81
2023-03-29T09:09:15.442Z,96680.59
2023-03-29T09:11:58.229Z,96685.84
2023-03-29T09:14:57.304Z,96682.66
2023-03-29T09:17:40.033Z,96674.06
2023-03-29T09:20:21.337Z,96676.69
2023-03-29T09:23:04.547Z,96664.09
2023-03-29T09:25:53.390Z,96664.63
2023-03-29T09:28:34.640Z,96664.44
2023-03-29T09:31:07.975Z,96660.81
2023-03-29T09:33:42.871Z,96653.06
2023-03-29T09:36:16.340Z,96652.50
2023-03-29T09:38:54.024Z,96656.69
2023-03-29T09:41:26.854Z,96656.13
2023-03-29T09:43:58.976Z,96655.75
2023-03-29T09:46:30.767Z,96654.38
2023-03-29T09:48:59.337Z,96670.16
2023-03-29T09:51:30.998Z,96656.16
2023-03-29T09:54:01.162Z,96652.81
2023-03-29T09:56:31.230Z,96650.88
2023-03-29T09:58:59.576Z,96641.03
2023-03-29T10:01:37.233Z,96646.72
2023-03-29T10:04:08.206Z,96649.91
2023-03-29T10:06:39.032Z,96640.72
2023-03-29T10:09:16.514Z,96649.31
2023-03-29T10:11:49.337Z,96636.84
2023-03-29T10:14:20.516Z,96634.59
2023-03-29T10:16:57.202Z,96636.66
2023-03-29T10:19:30.346Z,96630.53
2023-03-29T10:22:01.676Z,96637.41
2023-03-29T10:24:31.841Z,96625.84
2023-03-29T10:27:03.382Z,96620.91
2023-03-29T10:29:38.179Z,96619.75
2023-03-29T10:32:15.757Z,96624.44
2023-03-29T10:34:44.837Z,96616.91
2023-03-29T10:37:16.581Z,96622.41
2023-03-29T10:39:47.577Z,96609.59
2023-03-29T10:42:18.349Z,96597.09
2023-03-29T10:44:55.114Z,96593.47
2023-03-29T10:47:25.947Z,96595.81
2023-03-29T10:49:57.288Z,96591.22
2023-03-29T10:52:27.988Z,96601.16
2023-03-29T10:55:00.035Z,96577.78
2023-03-29T10:57:38.675Z,96582.75
2023-03-29T11:00:16.787Z,96586.00
2023-03-29T11:03:22.374Z,96578.00
2023-03-29T11:05:57.361Z,96589.22
2023-03-29T11:08:43.539Z,96576.16
2023-03-29T11:11:28.831Z,96578.66
2023-03-29T11:14:02.803Z,96570.41
2023-03-29T11:16:40.102Z,96568.81
2023-03-29T11:19:47.179Z,96560.66
2023-03-29T11:22:20.634Z,96546.03
2023-03-29T11:24:59.557Z,96552.03
2023-03-29T11:27:38.592Z,96549.94
2023-03-29T11:30:18.705Z,96542.66
2023-03-29T11:32:56.164Z,96543.97
2023-03-29T11:35:37.923Z,96545.50
2023-03-29T11:38:14.857Z,96540.38
2023-03-29T11:40:54.202Z,96545.03
2023-03-29T11:43:29.268Z,96545.25
2023-03-29T11:46:03.115Z,96552.38
2023-03-29T11:48:36.552Z,96555.03
2023-03-29T11:51:11.305Z,96548.78
2023-03-29T11:53:46.933Z,96541.53
2023-03-29T11:56:21.220Z,96541.84
2023-03-29T11:58:58.878Z,96551.25
2023-03-29T12:01:34.635Z,96548.44
2023-03-29T12:04:08.638Z,96556.38
2023-03-29T12:06:43.142Z,96547.63
2023-03-29T12:09:22.676Z,96544.84
2023-03-29T12:11:57.712Z,96553.94
2023-03-29T12:14:31.427Z,96529.28
2023-03-29T12:17:03.329Z,96527.16
2023-03-29T12:19:40.958Z,96520.38
2023-03-29T12:22:10.650Z,96532.28
2023-03-29T12:24:44.321Z,96531.78
2023-03-29T12:27:24.086Z,96531.34
2023-03-29T12:30:22.013Z,96524.38
2023-03-29T12:33:07.362Z,96516.28
2023-03-29T12:35:44.946Z,96516.81
2023-03-29T12:38:19.728Z,96509.72
2023-03-29T12:40:55.152Z,96512.84
2023-03-29T12:43:27.838Z,96506.03
2023-03-29T12:46:06.413Z,96507.66
2023-03-29T12:48:38.267Z,96506.94
2023-03-29T12:51:13.388Z,96508.56
2023-03-29T12:53:45.467Z,96501.25
2023-03-29T12:56:17.340Z,96500.88
2023-03-29T12:58:56.847Z,96498.03
2023-03-29T13:01:31.386Z,96502.31
2023-03-29T13:04:20.436Z,96493.38
2023-03-29T13:07:03.179Z,96502.66
2023-03-29T13:09:35.665Z,96492.72
2023-03-29T13:12:22.843Z,96482.28
2023-03-29T13:14:54.111Z,96482.44
2023-03-29T13:17:29.093Z,96499.19
2023-03-29T13:20:23.557Z,96482.75
2023-03-29T13:23:03.390Z,96482.84
2023-03-29T13:25:48.138Z,96474.53
2023-03-29T13:28:23.917Z,96466.00
2023-03-29T13:31:00.227Z,96474.22
2023-03-29T13:33:57.183Z,96458.69
2023-03-29T13:36:39.494Z,96458.09
2023-03-29T13:39:15.309Z,96460.69
2023-03-29T13:41:52.212Z,96463.50
2023-03-29T13:44:30.233Z,96459.16
2023-03-29T13:47:17.507Z,96442.38
2023-03-29T13:49:53.542Z,96445.44
2023-03-29T13:52:28.869Z,96458.38
2023-03-29T13:55:01.266Z,96457.72
2023-03-29T13:57:37.558Z,96456.09
2023-03-29T14:00:16.162Z,96461.47
2023-03-29T14:02:49.445Z,96464.63
2023-03-29T14:05:24.454Z,96460.66
2023-03-29T14:07:55.595Z,96456.56
2023-03-29T14:10:28.616Z,96446.44
2023-03-29T14:13:04.474Z,96450.72
2023-03-29T14:15:44.277Z,96441.47
2023-03-29T14:18:16.474Z,96450.59
2023-03-29T14:20:49.071Z,96455.59
2023-03-29T14:23:22.491Z,96452.97
2023-03-29T14:25:51.512Z,96465.25
2023-03-29T14:28:25.175Z,96455.50
2023-03-29T14:30:53.962Z,96456.19
2023-03-29T14:33:28.276Z,96460.19
2023-03-29T14:36:00.917Z,96455.72
2023-03-29T14:38:31.460Z,96452.41
2023-03-29T14:41:01.418Z,96456.72
2023-03-29T14:43:32.417Z,96476.91
2023-03-29T14:46:03.711Z,96463.03
2023-03-29T14:48:33.872Z,96469.13
2023-03-29T14:51:04.145Z,96458.84
2023-03-29T14:53:34.532Z,96460.00
2023-03-29T14:56:03.370Z,96456.66
2023-03-29T14:58:34.904Z,96446.84
2023-03-29T15:01:07.928Z,96453.09
2023-03-29T15:03:44.607Z,96447.00
2023-03-29T15:06:15.821Z,96454.84
2023-03-29T15:08:58.071Z,96441.00
2023-03-29T15:11:32.919Z,96447.72
2023-03-29T15:14:05.090Z,96444.78
2023-03-29T15:16:34.447Z,96442.19
2023-03-29T15:19:03.343Z,96440.75
2023-03-29T15:21:35.803Z,96442.66
2023-03-29T15:24:05.579Z,96448.19
2023-03-29T15:26:37.669Z,96444.59
2023-03-29T15:29:11.412Z,96447.78
2023-03-29T15:31:41.854Z,96466.38
2023-03-29T15:34:14.257Z,96461.91
2023-03-29T15:36:46.443Z,96460.97
2023-03-29T15:39:17.099Z,96474.06
2023-03-29T15:41:47.933Z,96468.81
2023-03-29T15:44:18.544Z,96482.59
2023-03-29T15:46:47.327Z,96468.47
2023-03-29T15:49:16.023Z,96452.78
2023-03-29T15:51:46.064Z,96457.72
2023-03-29T15:54:24.471Z,96468.31
2023-03-29T15:56:55.247Z,96478.47
2023-03-29T15:59:24.234Z,96491.06
2023-03-29T16:01:54.500Z,96512.81
2023-03-29T16:04:23.407Z,96477.94
2023-03-29T16:06:55.656Z,96483.44
2023-03-29T16:09:25.974Z,96486.47
2023-03-29T16:11:54.400Z,96493.56
2023-03-29T16:14:25.372Z,96483.47
2023-03-29T16:16:55.487Z,96479.31
2023-03-29T16:19:24.266Z,96474.66
2023-03-29T16:21:54.723Z,96480.13
2023-03-29T16:24:25.328Z,96482.28
2023-03-29T16:26:55.606Z,96478.81
2023-03-29T16:29:24.845Z,96471.03
2023-03-29T16:31:53.711Z,96463.47
2023-03-29T16:34:23.101Z,96461.50
2023-03-29T16:36:52.976Z,96453.53
2023-03-29T16:39:22.853Z,96476.41
2023-03-29T16:41:51.452Z,96457.91
2023-03-29T16:44:23.937Z,96451.34
2023-03-29T16:46:53.822Z,96458.94
2023-03-29T16:49:24.326Z,96453.81
2023-03-29T16:51:53.228Z,96463.25
2023-03-29T16:54:25.756Z,96465.50
2023-03-29T16:56:54.323Z,96472.75
2023-03-29T16:59:23.042Z,96479.19
2023-03-29T17:01:51.664Z,96475.66
2023-03-29T17:04:20.061Z,96478.28
2023-03-29T17:06:48.663Z,96482.75
2023-03-29T17:09:17.613Z,96490.47
2023-03-29T17:11:47.471Z,96490.28
2023-03-29T17:14:16.463Z,96469.09
2023-03-29T17:16:44.989Z,96477.50
2023-03-29T17:19:13.692Z,96450.75
2023-03-29T17:21:42.213Z,96453.88
2023-03-29T17:24:10.909Z,96450.56
2023-03-29T17:26:39.829Z,96436.38
2023-03-29T17:29:09.618Z,96422.19
2023-03-29T17:31:45.044Z,96420.06
2023-03-29T17:34:13.775Z,96421.69
2023-03-29T17:36:42.237Z,96425.19
2023-03-29T17:39:11.122Z,96420.88
2023-03-29T17:41:39.747Z,96421.34
2023-03-29T17:44:09.703Z,96430.75
2023-03-29T17:46:38.687Z,96447.06
2023-03-29T17:49:07.478Z,96440.13
2023-03-29T17:51:35.910Z,96449.00
2023-03-29T17:54:04.360Z,96454.47
2023-03-29T17:56:33.230Z,96443.56
2023-03-29T17:59:01.899Z,96438.75
2023-03-29T18:01:33.357Z,96434.78
2023-03-29T18:04:01.816Z,96447.28
2023-03-29T18:06:32.473Z,96455.53
2023-03-29T18:09:01.684Z,96447.59
2023-03-29T18:11:33.035Z,96453.84
2023-03-29T18:14:02.019Z,96449.72
2023-03-29T18:16:32.209Z,96438.34
2023-03-29T18:19:00.689Z,96427.94
2023-03-29T18:21:29.134Z,96414.59
2023-03-29T18:23:57.586Z,96423.84
2023-03-29T18:26:26.101Z,96411.47
2023-03-29T18:28:54.538Z,96434.56
2023-03-29T18:31:22.987Z,96416.22
2023-03-29T18:33:53.054Z,96416.22
2023-03-29T18:36:21.620Z,96412.09
2023-03-29T18:38:50.481Z,96423.47
2023-03-29T18:41:24.624Z,96423.81
2023-03-29T18:43:57.250Z,96456.31
2023-03-29T18:46:33.658Z,96433.69
2023-03-29T18:49:03.846Z,96420.81
2023-03-29T18:51:32.967Z,96428.88
2023-03-29T18:54:01.515Z,96426.22
2023-03-29T18:56:30.161Z,96402.50
2023-03-29T18:58:58.594Z,96419.84
2023-03-29T19:01:27.180Z,96417.88
2023-03-29T19:03:55.620Z,96406.66
2023-03-29T19:06:26.060Z,96404.31
2023-03-29T19:08:55.381Z,96407.75
2023-03-29T19:11:23.788Z,96411.22
2023-03-29T19:13:52.313Z,96426.38
2023-03-29T19:16:20.807Z,96418.66
2023-03-29T19:18:49.218Z,96413.19
2023-03-29T19:21:17.800Z,96419.47
2023-03-29T19:23:47.609Z,96400.34
2023-03-29T19:26:16.449Z,96417.13
2023-03-29T19:28:45.050Z,96406.72
2023-03-29T19:31:13.495Z,96420.91
2023-03-29T19:33:42.068Z,96417.59
2023-03-29T19:36:10.931Z,96421.22
2023-03-29T19:38:39.461Z,96430.81
2023-03-29T19:41:09.380Z,96426.19
2023-03-29T19:43:37.845Z,96433.81
2023-03-29T19:46:09.466Z,96426.56
2023-03-29T19:48:38.708Z,96416.69
2023-03-29T19:51:07.996Z,96410.25
2023-03-29T19:53:38.725Z,96407.31
2023-03-29T19:56:11.168Z,96408.81
2023-03-29T19:58:39.699Z,96398.44
2023-03-29T20:01:08.140Z,96390.56
2023-03-29T20:03:36.795Z,96391.56
2023-03-29T20:06:05.568Z,96396.53
2023-03-29T20:08:37.880Z,96404.81
2023-03-29T20:11:10.200Z,96390.31
2023-03-29T20:13:43.739Z,96401.53
2023-03-29T20:16:15.024Z,96393.28
2023-03-29T20:18:44.935Z,96400.22
2023-03-29T20:21:16.556Z,96401.22
2023-03-29T20:23:45.945Z,96417.06
2023-03-29T20:26:15.409Z,96406.50
2023-03-29T20:28:45.795Z,96397.91
2023-03-29T20:31:14.429Z,96398.25
2023-03-29T20:33:44.408Z,96413.41
2023-03-29T20:36:13.502Z,96415.38
2023-03-29T20:38:41.950Z,96410.09
2023-03-29T20:41:10.858Z,96420.34
2023-03-29T20:43:40.964Z,96420.19
2023-03-29T20:46:18.254Z,96430.25
2023-03-29T20:48:53.425Z,96423.19
2023-03-29T20:51:22.768Z,96432.75
2023-03-29T20:53:51.190Z,96439.69
2023-03-29T20:56:20.973Z,96431.59
2023-03-29T20:58:49.576Z,96443.50
2023-03-29T21:01:21.776Z,96423.88
2023-03-29T21:03:55.042Z,96420.22
2023-03-29T21:06:24.365Z,96418.09
2023-03-29T21:08:53.490Z,96409.88
2023-03-29T21:11:22.064Z,96398.28
2023-03-29T21:13:52.836Z,96411.50
2023-03-29T21:16:22.717Z,96400.13
2023-03-29T21:18:51.208Z,96395.66
2023-03-29T21:21:19.587Z,96386.75
2023-03-29T21:23:47.954Z,96385.75
2023-03-29T21:26:16.419Z,96387.41
2023-03-29T21:28:44.855Z,96370.09
2023-03-29T21:31:13.209Z,96371.56
2023-03-29T21:33:42.949Z,96366.22
2023-03-29T21:36:11.467Z,96380.22
2023-03-29T21:38:40.397Z,96353.66
2023-03-29T21:41:12.073Z,96347.06
2023-03-29T21:43:40.540Z,96347.69
2023-03-29T21:46:09.614Z,96347.34
2023-03-29T21:48:38.375Z,96339.25
2023-03-29T21:51:09.256Z,96347.63
2023-03-29T21:53:37.706Z,96334.09
2023-03-29T21:56:08.412Z,96321.19
2023-03-29T21:58:36.832Z,96316.94
2023-03-29T22:01:07.429Z,96309.16
2023-03-29T22:03:35.924Z,96316.59
2023-03-29T22:06:07.978Z,96308.38
2023-03-29T22:08:39.807Z,96303.75
2023-03-29T22:11:10.884Z,96302.09
2023-03-29T22:13:39.864Z,96304.06
2023-03-29T22:16:09.373Z,96301.41
2023-03-29T22:18:46.800Z,96289.72
2023-03-29T22:21:17.491Z,96300.13
2023-03-29T22:23:49.380Z,96295.34
2023-03-29T22:26:19.887Z,96295.84
2023-03-29T22:28:48.478Z,96299.81
2023-03-29T22:31:19.324Z,96290.75
2023-03-29T22:33:47.874Z,96301.00
2023-03-29T22:36:18.075Z,96308.75
2023-03-29T22:38:48.338Z,96310.41
2023-03-29T22:41:18.396Z,96306.78
2023-03-29T22:43:46.818Z,96314.69
2023-03-29T22:46:15.500Z,96302.16
2023-03-29T22:48:43.910Z,96290.78
2023-03-29T22:51:12.251Z,96310.75
2023-03-29T22:53:40.814Z,96307.97
2023-03-29T22:56:10.869Z,96281.22
2023-03-29T22:58:39.205Z,96292.63
2023-03-29T23:01:08.752Z,96280.25
2023-03-29T23:03:37.807Z,96290.66
2023-03-29T23:06:07.063Z,96271.31
2023-03-29T23:08:38.063Z,96277.25
2023-03-29T23:11:07.322Z,96266.53
2023-03-29T23:13:37.460Z,96264.91
2023-03-29T23:16:06.444Z,96258.97
2023-03-29T23:18:42.773Z,96252.66
2023-03-29T23:21:11.166Z,96261.41
2023-03-29T23:23:40.079Z,96272.66
2023-03-29T23:26:10.361Z,96276.28
2023-03-29T23:28:41.042Z,96258.63
2023-03-29T23:31:11.799Z,96252.34
2023-03-29T23:33:42.727Z,96257.63
2023-03-29T23:36:13.316Z,96256.81
2023-03-29T23:38:43.372Z,96252.66
2023-03-29T23:41:13.220Z,96267.84
2023-03-29T23:43:44.831Z,96272.47
2023-03-29T23:46:15.255Z,96252.34
2023-03-29T23:48:47.125Z,96256.97
2023-03-29T23:51:18.097Z,96240.28
2023-03-29T23:53:48.448Z,96247.38
2023-03-29T23:56:16.854Z,96233.38
2023-03-29T23:58:46.746Z,96230.72
